Time;durP1;ratioP1;P1;durP2;ratioP2;P2;SDS_P1;SDS_P2;PMS_P1;PMS_P2;Temp;Humidity;BMP_temperature;BMP_pressure;BME280_temperature;BME280_humidity;BME280_pressure;Samples;Min_cycle;Max_cycle;Signal;HPM_P1;HPM_P2
2021/10/03 00:01:52;;;;;;;4.73;3.33;;;18.80;1.00;;;;;;5054510;28;20394;-76
2021/10/03 00:04:29;;;;;;;3.80;3.07;;;;;;;;;;5054272;28;20502;-76
2021/10/03 00:07:20;;;;;;;7.17;3.33;;;18.80;1.00;;;;;;5054175;28;20495;-77
2021/10/03 00:09:50;;;;;;;5.53;3.30;;;18.80;1.00;;;;;;5054563;28;20421;-76
2021/10/03 00:12:21;;;;;;;5.20;3.50;;;18.70;1.00;;;;;;5043651;28;20415;-76
2021/10/03 00:14:47;;;;;;;3.77;2.90;;;18.70;1.00;;;;;;5032764;28;20437;-76
2021/10/03 00:17:19;;;;;;;6.23;3.43;;;;;;;;;;5046218;28;20384;-76
2021/10/03 00:19:45;;;;;;;8.77;4.07;;;;;;;;;;5054471;28;20364;-76
2021/10/03 00:22:37;;;;;;;7.03;3.30;;;;;;;;;;5052846;28;20375;-76
2021/10/03 00:25:13;;;;;;;3.67;3.20;;;;;;;;;;5036623;28;20396;-76
2021/10/03 00:27:44;;;;;;;6.73;3.40;;;18.40;1.00;;;;;;5033523;28;20398;-76
2021/10/03 00:30:13;;;;;;;5.60;3.80;;;18.30;1.00;;;;;;5033966;28;20401;-76
2021/10/03 00:32:43;;;;;;;5.30;2.90;;;;;;;;;;5034273;28;20401;-76
2021/10/03 00:35:10;;;;;;;16.13;4.20;;;18.20;1.00;;;;;;5044378;28;20384;-77
2021/10/03 00:37:37;;;;;;;14.00;3.83;;;;;;;;;;5053169;28;20414;-77
2021/10/03 00:40:08;;;;;;;9.27;4.07;;;18.10;1.00;;;;;;5054131;28;20944;-76
2021/10/03 00:42:43;;;;;;;5.50;3.13;;;;;;;;;;5060353;28;20902;-76
2021/10/03 00:45:30;;;;;;;7.17;3.67;;;18.00;1.00;;;;;;5074164;28;20400;-76
2021/10/03 00:48:07;;;;;;;5.90;3.27;;;17.90;1.00;;;;;;5073958;28;21078;-77
2021/10/03 00:50:34;;;;;;;7.03;3.57;;;17.80;1.00;;;;;;5073858;28;20371;-76
2021/10/03 00:53:07;;;;;;;8.17;3.90;;;;;;;;;;5073748;28;20870;-77
2021/10/03 00:55:33;;;;;;;6.30;3.37;;;;;;;;;;5061815;28;20387;-73
2021/10/03 00:58:00;;;;;;;6.50;3.70;;;;;;;;;;5038636;28;20886;-72
2021/10/03 01:00:32;;;;;;;6.70;3.30;;;17.70;1.00;;;;;;5053432;28;20392;-73
2021/10/03 01:03:02;;;;;;;4.30;2.80;;;;;;;;;;5053678;28;20431;-73
2021/10/03 01:05:28;;;;;;;4.13;2.93;;;17.60;1.00;;;;;;5052014;28;20405;-73
2021/10/03 01:07:55;;;;;;;5.73;2.93;;;17.60;1.00;;;;;;5059129;28;20422;-73
2021/10/03 01:10:25;;;;;;;6.73;3.33;;;;;;;;;;5074085;28;20455;-73
2021/10/03 01:13:05;;;;;;;8.30;3.20;;;17.60;1.00;;;;;;5065996;28;20490;-73
2021/10/03 01:15:37;;;;;;;5.70;3.13;;;17.50;1.00;;;;;;5053224;28;20463;-73
2021/10/03 01:18:04;;;;;;;4.77;3.10;;;17.50;1.00;;;;;;5033170;28;20817;-73
2021/10/03 01:20:32;;;;;;;5.93;3.03;;;17.50;1.00;;;;;;5033269;28;20421;-73
2021/10/03 01:23:03;;;;;;;5.27;3.17;;;;;;;;;;5053479;28;20511;-73
2021/10/03 01:25:29;;;;;;;7.17;3.07;;;;;;;;;;5073360;28;20904;-73
2021/10/03 01:28:02;;;;;;;4.63;3.07;;;17.50;1.00;;;;;;5043698;28;20848;-73
2021/10/03 01:30:29;;;;;;;12.33;3.50;;;17.50;1.00;;;;;;5033407;28;20834;-73
2021/10/03 01:32:55;;;;;;;5.60;3.10;;;;;;;;;;5039654;28;20420;-73
2021/10/03 01:35:21;;;;;;;3.67;2.70;;;;;;;;;;5051748;28;20888;-73
2021/10/03 01:37:49;;;;;;;6.00;3.27;;;17.70;1.00;;;;;;5062877;28;20766;-73
2021/10/03 01:40:20;;;;;;;6.80;3.10;;;;;;;;;;5075089;28;20407;-76
2021/10/03 01:42:55;;;;;;;7.50;2.83;;;;;;;;;;5036879;28;20448;-76
2021/10/03 01:45:25;;;;;;;5.43;3.10;;;;;;;;;;5037074;28;20584;-76
2021/10/03 01:48:07;;;;;;;3.83;2.50;;;;;;;;;;5036761;28;20745;-76
2021/10/03 01:50:55;;;;;;;6.07;2.97;;;17.90;1.00;;;;;;5035513;28;20726;-76
2021/10/03 01:53:31;;;;;;;5.07;2.70;;;;;;;;;;5035533;28;20447;-77
2021/10/03 01:55:58;;;;;;;9.43;3.20;;;18.00;1.00;;;;;;5037155;28;20424;-73
2021/10/03 01:58:27;;;;;;;6.83;3.33;;;18.10;1.00;;;;;;5037131;28;20425;-73
2021/10/03 02:00:55;;;;;;;4.80;2.93;;;;;;;;;;5036640;28;20488;-73
2021/10/03 02:03:21;;;;;;;6.70;2.73;;;;;;;;;;5042035;28;20456;-73
2021/10/03 02:05:48;;;;;;;2.70;2.40;;;18.20;1.00;;;;;;5056314;28;20756;-73
2021/10/03 02:08:15;;;;;;;7.23;3.80;;;18.30;1.00;;;;;;5054618;28;20398;-73
2021/10/03 02:10:55;;;;;;;4.97;3.07;;;;;;;;;;5055641;28;20431;-76
2021/10/03 02:13:23;;;;;;;4.23;2.70;;;18.30;1.00;;;;;;5056335;28;20399;-76
2021/10/03 02:15:55;;;;;;;4.90;2.80;;;;;;;;;;5054895;28;20790;-76
2021/10/03 02:18:35;;;;;;;7.90;3.23;;;18.30;1.00;;;;;;5056357;28;20374;-76
2021/10/03 02:21:24;;;;;;;8.33;3.23;;;;;;;;;;5056598;28;20368;-77
2021/10/03 02:23:50;;;;;;;4.40;2.87;;;;;;;;;;5054617;28;20459;-77
2021/10/03 02:26:19;;;;;;;7.03;3.07;;;;;;;;;;5076849;28;20729;-76
2021/10/03 02:28:55;;;;;;;4.03;2.80;;;;;;;;;;5076204;28;20392;-76
2021/10/03 02:31:31;;;;;;;6.00;2.67;;;;;;;;;;5055236;28;20421;-76
2021/10/03 02:34:07;;;;;;;7.53;3.07;;;;;;;;;;5036121;28;20372;-76
2021/10/03 02:36:33;;;;;;;5.87;3.10;;;;;;;;;;5035663;28;20398;-76
2021/10/03 02:39:00;;;;;;;6.63;3.03;;;;;;;;;;5036257;28;20744;-77
2021/10/03 02:41:26;;;;;;;4.97;2.93;;;;;;;;;;5036382;28;20398;-77
2021/10/03 02:43:56;;;;;;;4.47;3.27;;;18.10;1.00;;;;;;5036209;28;20458;-76
2021/10/03 02:46:25;;;;;;;5.30;3.57;;;18.10;1.00;;;;;;5035659;28;20397;-76
2021/10/03 02:48:52;;;;;;;6.63;3.17;;;;;;;;;;5070852;28;20450;-77
2021/10/03 02:51:27;;;;;;;6.27;3.27;;;18.00;1.00;;;;;;5063163;28;20451;-76
2021/10/03 02:53:54;;;;;;;6.13;3.13;;;17.90;1.00;;;;;;5055698;28;20713;-76
2021/10/03 02:56:22;;;;;;;7.00;3.43;;;17.80;1.00;;;;;;5056078;28;20412;-73
2021/10/03 02:58:48;;;;;;;6.30;2.60;;;;;;;;;;5054770;28;20438;-73
2021/10/03 03:01:14;;;;;;;6.00;3.30;;;;;;;;;;5055494;28;20488;-73
2021/10/03 03:03:40;;;;;;;7.70;3.10;;;;;;;;;;5055072;28;20463;-73
2021/10/03 03:06:08;;;;;;;9.03;3.90;;;17.60;1.00;;;;;;5055265;28;20866;-73
2021/10/03 03:08:37;;;;;;;5.90;3.60;;;;;;;;;;5042226;28;20432;-73
2021/10/03 03:11:13;;;;;;;3.23;2.10;;;;;;;;;;5036102;28;20417;-76
2021/10/03 03:13:39;;;;;;;10.03;3.60;;;;;;;;;;5035515;28;20406;-77
2021/10/03 03:16:07;;;;;;;4.30;2.77;;;;;;;;;;5071688;28;20414;-77
2021/10/03 03:18:39;;;;;;;6.57;3.30;;;;;;;;;;5074107;28;20395;-77
2021/10/03 03:21:13;;;;;;;4.77;3.33;;;;;;;;;;5036341;28;20890;-76
2021/10/03 03:23:43;;;;;;;6.27;3.30;;;;;;;;;;5054220;28;20429;-76
2021/10/03 03:26:19;;;;;;;6.10;3.27;;;;;;;;;;5046052;28;20881;-76
2021/10/03 03:28:45;;;;;;;4.83;2.90;;;;;;;;;;5039279;28;20502;-77
2021/10/03 03:31:30;;;;;;;3.63;2.67;;;16.90;1.00;;;;;;5037713;28;20902;-77
2021/10/03 03:33:56;;;;;;;17.10;3.70;;;16.90;1.00;;;;;;5031613;28;20419;-77
2021/10/03 03:36:22;;;;;;;6.30;3.60;;;;;;;;;;5072169;28;20854;-77
2021/10/03 03:38:55;;;;;;;5.20;3.57;;;;;;;;;;5045596;28;20382;-76
2021/10/03 03:41:21;;;;;;;5.87;3.50;;;;;;;;;;5047855;28;20419;-73
2021/10/03 03:43:48;;;;;;;6.57;3.63;;;;;;;;;;5054629;28;20495;-73
2021/10/03 03:46:25;;;;;;;4.40;2.73;;;;;;;;;;5071848;28;20463;-73
2021/10/03 03:48:51;;;;;;;5.80;3.40;;;;;;;;;;5060958;28;20868;-73
2021/10/03 03:51:17;;;;;;;5.47;3.27;;;;;;;;;;5054576;28;20427;-73
2021/10/03 03:53:43;;;;;;;7.07;2.73;;;;;;;;;;5072320;28;20414;-73
2021/10/03 03:56:13;;;;;;;11.70;3.77;;;;;;;;;;5046874;28;20426;-76
2021/10/03 03:58:39;;;;;;;7.57;2.97;;;;;;;;;;5054615;28;20476;-77
2021/10/03 04:01:06;;;;;;;6.50;3.07;;;;;;;;;;5074398;28;20380;-77
2021/10/03 04:04:00;;;;;;;6.33;3.53;;;;;;;;;;5074398;28;20916;-77
2021/10/03 04:06:31;;;;;;;5.70;2.90;;;;;;;;;;5069315;28;20901;-77
2021/10/03 04:09:07;;;;;;;4.57;3.17;;;;;;;;;;5044617;28;20418;-77
2021/10/03 04:11:43;;;;;;;4.97;3.83;;;;;;;;;;5042044;28;20396;-77
2021/10/03 04:14:25;;;;;;;4.90;2.97;;;;;;;;;;5049416;28;20385;-77
2021/10/03 04:16:55;;;;;;;3.90;3.07;;;;;;;;;;5069168;28;20412;-77
2021/10/03 04:19:54;;;;;;;5.80;3.27;;;;;;;;;;5065826;28;20413;-77
2021/10/03 04:22:31;;;;;;;7.10;3.33;;;;;;;;;;5041116;28;20394;-77
2021/10/03 04:24:57;;;;;;;6.60;3.23;;;;;;;;;;5033884;28;20454;-77
2021/10/03 04:27:24;;;;;;;4.63;3.10;;;;;;;;;;5054352;28;20363;-77
2021/10/03 04:30:01;;;;;;;8.13;3.70;;;;;;;;;;5053925;28;20719;-76
2021/10/03 04:32:27;;;;;;;9.17;3.60;;;;;;;;;;5052899;28;20465;-77
2021/10/03 04:35:01;;;;;;;5.80;3.00;;;;;;;;;;5053862;28;20820;-77
2021/10/03 04:37:31;;;;;;;5.30;3.60;;;;;;;;;;5038780;28;20918;-77
2021/10/03 04:39:57;;;;;;;5.70;3.43;;;;;;;;;;5032549;28;20387;-73
2021/10/03 04:42:44;;;;;;;3.80;3.00;;;;;;;;;;5035136;28;20888;-77
2021/10/03 04:45:13;;;;;;;7.07;3.10;;;;;;;;;;5034001;28;20367;-77
2021/10/03 04:47:43;;;;;;;3.20;2.90;;;16.60;1.00;;;;;;5034260;28;20362;-77
2021/10/03 04:50:19;;;;;;;4.00;2.90;;;;;;;;;;5034031;28;20370;-77
2021/10/03 04:52:45;;;;;;;6.40;3.40;;;;;;;;;;5032403;28;20419;-77
2021/10/03 04:55:36;;;;;;;4.00;3.20;;;16.50;1.00;;;;;;5033589;28;20898;-77
2021/10/03 04:58:07;;;;;;;4.13;3.43;;;;;;;;;;5032577;28;20470;-77
2021/10/03 05:00:43;;;;;;;6.77;3.63;;;;;;;;;;5033594;28;20374;-77
2021/10/03 05:03:35;;;;;;;7.40;3.60;;;16.60;1.00;;;;;;5033645;28;20455;-77
2021/10/03 05:06:02;;;;;;;5.10;3.50;;;16.60;1.00;;;;;;5050666;28;20396;-77
2021/10/03 05:08:28;;;;;;;5.97;3.00;;;;;;;;;;5073571;28;20391;-77
2021/10/03 05:10:55;;;;;;;4.20;3.03;;;;;;;;;;5073839;28;20411;-77
2021/10/03 05:13:21;;;;;;;6.33;3.93;;;;;;;;;;5074718;28;20842;-77
2021/10/03 05:15:47;;;;;;;4.10;3.10;;;;;;;;;;5077635;28;20908;-77
2021/10/03 05:18:19;;;;;;;7.73;3.70;;;;;;;;;;5077581;28;20357;-77
2021/10/03 05:21:01;;;;;;;4.37;3.10;;;;;;;;;;5060523;28;20382;-77
2021/10/03 05:23:48;;;;;;;4.30;2.97;;;16.50;1.00;;;;;;5037125;28;20441;-77
2021/10/03 05:26:31;;;;;;;6.50;3.33;;;;;;;;;;5054627;28;20404;-77
2021/10/03 05:28:57;;;;;;;4.50;2.80;;;;;;;;;;5061780;28;20412;-77
2021/10/03 05:31:24;;;;;;;8.50;4.27;;;;;;;;;;5057286;28;20390;-77
2021/10/03 05:34:07;;;;;;;5.17;3.40;;;;;;;;;;5057038;28;20373;-77
2021/10/03 05:36:37;;;;;;;12.73;3.17;;;;;;;;;;5066478;28;20475;-77
2021/10/03 05:39:07;;;;;;;4.27;3.30;;;;;;;;;;5077336;28;20390;-77
2021/10/03 05:45:24;;;;;;;5.03;3.50;;;16.60;1.00;;;;;;5056924;28;20464;-82
2021/10/03 05:48:19;;;;;;;6.93;3.47;;;16.60;1.00;;;;;;5056823;28;20765;-82
2021/10/03 05:50:55;;;;;;;7.33;3.40;;;;;;;;;;5056429;28;20414;-82
2021/10/03 05:57:12;;;;;;;6.80;3.17;;;16.50;1.00;;;;;;5065912;28;20749;-84
2021/10/03 06:00:30;;;;;;;6.10;3.30;;;16.60;1.00;;;;;;5077133;28;20397;-83
2021/10/03 06:03:07;;;;;;;5.40;3.40;;;;;;;;;;5075742;28;20955;-84
2021/10/03 06:05:49;;;;;;;6.23;3.90;;;;;;;;;;5075666;28;20418;-83
2021/10/03 06:08:42;;;;;;;4.93;3.20;;;16.60;1.00;;;;;;5076421;28;20921;-78
2021/10/03 06:11:08;;;;;;;10.83;3.70;;;;;;;;;;5063796;28;20483;-77
2021/10/03 06:13:38;;;;;;;8.27;3.63;;;;;;;;;;5056732;28;20459;-77
2021/10/03 06:16:04;;;;;;;7.67;4.07;;;16.60;1.00;;;;;;5058540;28;20838;-77
2021/10/03 06:18:31;;;;;;;7.30;3.77;;;;;;;;;;5076384;28;20369;-77
2021/10/03 06:21:01;;;;;;;7.40;4.40;;;;;;;;;;5058683;28;20427;-77
2021/10/03 06:23:44;;;;;;;6.40;3.57;;;16.70;1.00;;;;;;5055819;28;20960;-77
2021/10/03 06:26:14;;;;;;;6.70;4.07;;;16.70;1.00;;;;;;5052950;28;20377;-77
2021/10/03 06:28:40;;;;;;;3.50;2.97;;;;;;;;;;5035948;28;20371;-80
2021/10/03 06:31:25;;;;;;;6.13;3.10;;;;;;;;;;5036414;28;20491;-80
2021/10/03 06:33:51;;;;;;;9.40;3.50;;;;;;;;;;5035896;28;20396;-78
2021/10/03 06:36:17;;;;;;;7.93;3.70;;;;;;;;;;5037297;28;20505;-77
2021/10/03 06:38:44;;;;;;;7.27;3.83;;;;;;;;;;5055761;28;20381;-77
2021/10/03 06:41:25;;;;;;;8.20;3.97;;;;;;;;;;5056182;28;20399;-77
2021/10/03 06:43:56;;;;;;;4.97;3.10;;;16.70;1.00;;;;;;5072361;28;20914;-77
2021/10/03 06:46:23;;;;;;;4.67;3.27;;;;;;;;;;5074676;28;20401;-81
2021/10/03 06:48:55;;;;;;;5.57;3.53;;;;;;;;;;5055926;28;20372;-77
2021/10/03 06:51:21;;;;;;;4.37;3.23;;;;;;;;;;5035660;28;20416;-79
2021/10/03 06:54:01;;;;;;;8.60;3.87;;;;;;;;;;5035662;28;20400;-77
2021/10/03 06:56:31;;;;;;;5.80;3.67;;;;;;;;;;5037416;28;20463;-78
2021/10/03 06:59:01;;;;;;;6.53;3.57;;;;;;;;;;5053472;28;20836;-77
2021/10/03 07:01:31;;;;;;;10.63;4.10;;;;;;;;;;5035806;28;20895;-77
2021/10/03 07:04:18;;;;;;;8.40;4.30;;;16.80;1.00;;;;;;5034225;28;20456;-78
2021/10/03 07:06:49;;;;;;;6.10;3.97;;;;;;;;;;5035453;28;20383;-77
2021/10/03 07:09:42;;;;;;;5.83;3.50;;;16.70;1.00;;;;;;5051255;28;20747;-77
2021/10/03 07:12:09;;;;;;;5.37;3.67;;;;;;;;;;5055197;28;20390;-77
2021/10/03 07:14:35;;;;;;;6.87;3.83;;;;;;;;;;5054307;28;20445;-73
2021/10/03 07:17:07;;;;;;;13.00;4.27;;;;;;;;;;5041761;28;20492;-73
2021/10/03 07:19:37;;;;;;;4.87;3.10;;;;;;;;;;5055006;28;20427;-73
2021/10/03 07:22:03;;;;;;;6.00;3.73;;;;;;;;;;5052344;28;22077;-73
2021/10/03 07:24:30;;;;;;;24.07;3.90;;;;;;;;;;5059856;28;20432;-73
2021/10/03 07:26:56;;;;;;;7.23;3.67;;;;;;;;;;5070536;28;20505;-73
2021/10/03 07:29:31;;;;;;;6.37;3.50;;;;;;;;;;5035353;28;20379;-75
2021/10/03 07:31:57;;;;;;;10.07;4.30;;;;;;;;;;5049981;28;20426;-73
2021/10/03 07:34:23;;;;;;;12.67;4.40;;;;;;;;;;5053660;28;20401;-73
2021/10/03 07:36:50;;;;;;;6.27;3.87;;;;;;;;;;5052845;28;20384;-73
2021/10/03 07:39:25;;;;;;;7.20;3.70;;;;;;;;;;5054570;28;20385;-79
2021/10/03 07:41:51;;;;;;;7.80;4.17;;;;;;;;;;5042727;28;20427;-79
2021/10/03 07:47:49;;;;;;;9.60;3.20;;;;;;;;;;5054772;28;20771;-83
2021/10/03 07:50:15;;;;;;;14.80;3.50;;;;;;;;;;5054933;28;20369;-77
2021/10/03 07:52:42;;;;;;;8.63;3.73;;;;;;;;;;5054146;28;20863;-78
2021/10/03 07:55:36;;;;;;;8.20;4.47;;;16.80;1.00;;;;;;5053238;28;20832;-77
2021/10/03 07:58:13;;;;;;;5.20;3.53;;;;;;;;;;5034131;28;20405;-78
2021/10/03 08:00:39;;;;;;;6.90;3.83;;;;;;;;;;5039510;28;20386;-74
2021/10/03 08:03:06;;;;;;;6.90;4.27;;;;;;;;;;5044627;28;20437;-74
2021/10/03 08:05:33;;;;;;;9.10;3.80;;;;;;;;;;5050250;28;20712;-74
2021/10/03 08:08:04;;;;;;;16.77;4.47;;;;;;;;;;5054218;28;20467;-74
2021/10/03 08:10:31;;;;;;;8.17;4.40;;;;;;;;;;5044629;28;20491;-74
2021/10/03 08:12:57;;;;;;;10.57;4.87;;;;;;;;;;5047672;28;20936;-74
2021/10/03 08:15:27;;;;;;;6.40;3.30;;;;;;;;;;5048777;28;20738;-78
2021/10/03 08:18:01;;;;;;;5.53;4.10;;;;;;;;;;5041275;28;20844;-78
2021/10/03 08:20:31;;;;;;;18.93;4.07;;;;;;;;;;5053963;28;20455;-77
2021/10/03 08:22:58;;;;;;;7.53;4.10;;;;;;;;;;5034888;28;20378;-78
2021/10/03 08:25:24;;;;;;;12.57;4.30;;;;;;;;;;5046442;28;20485;-78
2021/10/03 08:27:55;;;;;;;16.30;4.60;;;;;;;;;;5053492;28;20388;-78
2021/10/03 08:30:54;;;;;;;16.77;4.40;;;17.40;1.00;;;;;;5053587;28;20396;-78
2021/10/03 08:33:21;;;;;;;12.37;3.80;;;17.40;1.00;;;;;;5053261;28;20887;-78
2021/10/03 08:35:47;;;;;;;7.17;3.37;;;;;;;;;;5060298;28;20390;-78
2021/10/03 08:38:13;;;;;;;18.13;3.93;;;;;;;;;;5056977;28;20427;-78
2021/10/03 08:40:49;;;;;;;10.33;4.07;;;;;;;;;;5069193;28;20423;-77
2021/10/03 08:43:52;;;;;;;7.60;3.57;;;17.50;1.00;;;;;;5033854;28;20447;-78
2021/10/03 08:46:37;;;;;;;15.23;3.77;;;;;;;;;;5053339;28;20839;-77
2021/10/03 08:49:24;;;;;;;10.87;3.93;;;17.60;1.00;;;;;;5053849;28;20446;-77
2021/10/03 08:51:51;;;;;;;6.70;3.67;;;;;;;;;;5053738;28;20426;-77
2021/10/03 08:54:25;;;;;;;11.73;3.90;;;;;;;;;;5033778;28;20903;-77
2021/10/03 08:57:01;;;;;;;5.30;3.70;;;;;;;;;;5042680;28;20394;-77
2021/10/03 08:59:37;;;;;;;15.20;3.80;;;;;;;;;;5053605;28;20419;-78
2021/10/03 09:02:13;;;;;;;6.00;3.57;;;;;;;;;;5056827;28;20476;-78
2021/10/03 09:04:43;;;;;;;6.30;3.50;;;;;;;;;;5060318;28;20530;-78
2021/10/03 09:07:19;;;;;;;21.37;5.07;;;;;;;;;;5053632;28;20761;-77
2021/10/03 09:10:06;;;;;;;3.57;2.90;;;17.80;1.00;;;;;;5040774;28;20820;-77
2021/10/03 09:12:35;;;;;;;3.90;2.77;;;17.80;1.00;;;;;;5033337;28;20456;-77
2021/10/03 09:15:12;;;;;;;7.17;4.07;;;17.90;1.00;;;;;;5033128;28;20877;-78
2021/10/03 09:17:53;;;;;;;11.60;3.80;;;17.90;1.00;;;;;;5033727;28;20441;-74
2021/10/03 09:20:24;;;;;;;22.73;4.63;;;17.90;1.00;;;;;;5043483;28;20475;-74
2021/10/03 09:23:03;;;;;;;6.23;3.77;;;18.00;1.00;;;;;;5056550;28;20419;-74
2021/10/03 09:25:43;;;;;;;4.40;3.17;;;18.00;1.00;;;;;;5056622;28;20424;-74
2021/10/03 09:28:13;;;;;;;16.50;4.17;;;18.00;1.00;;;;;;5033119;28;20373;-74
2021/10/03 09:30:54;;;;;;;20.90;4.03;;;;;;;;;;5031983;28;20376;-77
2021/10/03 09:33:38;;;;;;;3.60;2.80;;;18.00;1.00;;;;;;5044936;28;20420;-78
2021/10/03 09:36:13;;;;;;;8.63;3.30;;;;;;;;;;5036816;28;20414;-78
2021/10/03 09:38:55;;;;;;;5.63;3.57;;;18.10;1.00;;;;;;5033412;28;20833;-77
2021/10/03 09:41:31;;;;;;;6.23;3.83;;;18.20;1.00;;;;;;5033074;28;20373;-78
2021/10/03 09:44:24;;;;;;;11.60;3.73;;;18.20;1.00;;;;;;5045363;28;20430;-78
2021/10/03 09:47:25;;;;;;;18.03;4.40;;;18.30;1.00;;;;;;5062398;28;20453;-77
2021/10/03 09:49:51;;;;;;;11.37;4.20;;;;;;;;;;5063451;28;20401;-77
2021/10/03 09:52:25;;;;;;;6.63;3.67;;;;;;;;;;5072868;28;20392;-77
2021/10/03 09:54:56;;;;;;;11.87;3.87;;;18.60;1.00;;;;;;5072790;28;20420;-78
2021/10/03 09:57:23;;;;;;;6.83;3.80;;;;;;;;;;5063876;28;20438;-78
2021/10/03 09:59:49;;;;;;;8.10;3.63;;;;;;;;;;5074360;28;20374;-78
2021/10/03 10:02:16;;;;;;;10.17;4.63;;;;;;;;;;5076815;28;20393;-78
2021/10/03 10:04:43;;;;;;;8.10;3.47;;;;;;;;;;5070752;28;20488;-78
2021/10/03 10:07:36;;;;;;;5.70;3.60;;;19.00;1.00;;;;;;5067818;28;20720;-78
2021/10/03 10:10:08;;;;;;;10.43;3.60;;;19.10;1.00;;;;;;5063560;28;20431;-78
2021/10/03 10:12:44;;;;;;;4.03;3.17;;;19.10;1.00;;;;;;5076247;28;20378;-78
2021/10/03 10:15:23;;;;;;;4.77;3.37;;;19.20;1.00;;;;;;5076610;28;20396;-78
2021/10/03 10:17:50;;;;;;;8.23;3.23;;;;;;;;;;5067080;28;20445;-77
2021/10/03 10:20:24;;;;;;;4.27;2.90;;;;;;;;;;5054922;28;20410;-77
2021/10/03 10:23:03;;;;;;;5.47;3.03;;;19.40;1.00;;;;;;5056409;28;20381;-77
2021/10/03 10:25:50;;;;;;;18.43;4.17;;;19.50;1.00;;;;;;5055112;28;20809;-78
2021/10/03 10:28:54;;;;;;;11.23;3.70;;;19.50;1.00;;;;;;5036019;28;20406;-78
2021/10/03 10:31:23;;;;;;;13.10;4.10;;;19.60;1.00;;;;;;5036323;28;20414;-77
2021/10/03 10:33:57;;;;;;;9.83;3.83;;;;;;;;;;5045083;28;20534;-77
2021/10/03 10:36:30;;;;;;;13.70;4.50;;;19.70;1.00;;;;;;5054303;28;20428;-78
2021/10/03 10:39:08;;;;;;;12.13;3.90;;;;;;;;;;5039551;28;20451;-77
2021/10/03 10:41:53;;;;;;;5.00;3.60;;;19.90;1.00;;;;;;5055402;28;20798;-80
2021/10/03 10:44:26;;;;;;;5.97;3.50;;;;;;;;;;5055449;28;20456;-80
2021/10/03 10:46:58;;;;;;;14.80;3.87;;;20.00;1.00;;;;;;5051753;28;20413;-74
2021/10/03 10:49:53;;;;;;;15.90;4.30;;;20.20;1.00;;;;;;5044584;28;20517;-74
2021/10/03 10:52:20;;;;;;;15.97;3.90;;;20.20;1.00;;;;;;5053596;28;20395;-74
2021/10/03 10:55:04;;;;;;;8.10;3.77;;;;;;;;;;5044026;28;20419;-74
2021/10/03 10:57:51;;;;;;;15.33;3.70;;;;;;;;;;5052226;28;20510;-74
2021/10/03 11:00:24;;;;;;;8.07;3.83;;;20.50;1.00;;;;;;5050428;28;20574;-74
2021/10/03 11:02:57;;;;;;;11.57;3.33;;;20.60;1.00;;;;;;5035706;28;20405;-78
2021/10/03 11:05:48;;;;;;;12.53;3.57;;;20.70;1.00;;;;;;5037722;28;20393;-77
2021/10/03 11:08:31;;;;;;;4.33;3.00;;;;;;;;;;5055400;28;20849;-86
2021/10/03 11:11:10;;;;;;;9.53;3.30;;;;;;;;;;5039045;28;20432;-84
2021/10/03 11:13:39;;;;;;;6.27;3.23;;;;;;;;;;5035097;28;20387;-81
2021/10/03 11:16:25;;;;;;;8.60;3.43;;;20.90;1.00;;;;;;5034995;28;20474;-78
2021/10/03 11:18:56;;;;;;;5.90;2.63;;;20.90;1.00;;;;;;5035399;28;20433;-78
2021/10/03 11:21:31;;;;;;;3.90;3.00;;;;;;;;;;5035146;28;20388;-78
2021/10/03 11:23:59;;;;;;;10.57;3.93;;;21.10;1.00;;;;;;5033984;28;20492;-78
2021/10/03 11:26:26;;;;;;;3.30;2.97;;;;;;;;;;5036258;28;20424;-83
2021/10/03 11:29:20;;;;;;;4.57;3.20;;;21.20;1.00;;;;;;5071213;28;20459;-85
2021/10/03 11:32:12;;;;;;;3.43;2.87;;;21.30;1.00;;;;;;5035306;28;20407;-79
2021/10/03 11:34:57;;;;;;;4.60;3.33;;;;;;;;;;5034958;28;20958;-78
2021/10/03 11:37:26;;;;;;;6.87;3.10;;;21.40;1.00;;;;;;5039929;28;20825;-80
2021/10/03 11:40:13;;;;;;;4.80;3.30;;;21.40;1.00;;;;;;5035951;28;20393;-80
2021/10/03 11:42:45;;;;;;;2.53;2.30;;;21.40;1.00;;;;;;5054380;28;20395;-79
2021/10/03 11:45:48;;;;;;;10.67;3.20;;;21.30;1.00;;;;;;5054384;28;20451;-79
2021/10/03 11:48:31;;;;;;;14.23;3.50;;;;;;;;;;5052884;28;20440;-86
2021/10/03 11:51:19;;;;;;;4.97;3.60;;;21.10;1.00;;;;;;5042499;28;20412;-85
2021/10/03 11:53:49;;;;;;;5.87;4.40;;;;;;;;;;5055107;28;20863;-88
2021/10/03 12:00:06;;;;;;;5.53;3.73;;;;;;;;;;5044402;28;20482;-88
2021/10/03 12:03:07;;;;;;;11.17;4.00;;;20.80;1.00;;;;;;5055145;28;20775;-81
2021/10/03 12:08:54;;;;;;;7.83;4.30;;;20.90;1.00;;;;;;5052767;28;20413;-84
2021/10/03 12:11:21;;;;;;;6.53;4.03;;;;;;;;;;5034827;28;20488;-85
2021/10/03 12:17:25;;;;;;;6.73;3.83;;;;;;;;;;5052655;28;20415;-85
2021/10/03 12:20:01;;;;;;;5.97;3.97;;;;;;;;;;5044677;28;20425;-77
2021/10/03 12:23:04;;;;;;;10.53;4.57;;;21.20;1.00;;;;;;5033845;28;20874;-77
2021/10/03 12:25:40;;;;;;;11.70;3.70;;;21.20;1.00;;;;;;5031649;28;20779;-74
2021/10/03 12:28:06;;;;;;;9.33;3.07;;;;;;;;;;5011281;28;20443;-74
2021/10/03 12:30:54;;;;;;;9.87;3.67;;;21.20;1.00;;;;;;5031894;28;20927;-79
2021/10/03 12:33:37;;;;;;;9.00;3.60;;;;;;;;;;5015497;28;20508;-75
2021/10/03 12:36:19;;;;;;;4.80;2.80;;;;;;;;;;5031504;28;20404;-76
2021/10/03 12:38:45;;;;;;;7.33;3.90;;;;;;;;;;5017330;28;20425;-75
2021/10/03 12:41:13;;;;;;;8.77;4.10;;;;;;;;;;5029863;28;20482;-75
2021/10/03 12:43:54;;;;;;;8.27;3.90;;;21.40;1.00;;;;;;5031560;28;21009;-75
2021/10/03 12:46:21;;;;;;;3.77;3.10;;;;;;;;;;5031598;28;20446;-74
2021/10/03 12:48:47;;;;;;;8.77;4.10;;;;;;;;;;5023801;28;20850;-74
2021/10/03 12:51:13;;;;;;;2.80;2.30;;;;;;;;;;5030183;28;20431;-74
2021/10/03 12:53:39;;;;;;;4.10;2.80;;;;;;;;;;5031491;28;20747;-74
2021/10/03 12:56:07;;;;;;;2.80;2.37;;;;;;;;;;5031580;28;20400;-74
2021/10/03 12:58:37;;;;;;;2.90;2.30;;;;;;;;;;5030155;28;20450;-74
2021/10/03 13:01:03;;;;;;;8.90;2.73;;;;;;;;;;5050753;28;20900;-74
2021/10/03 13:03:34;;;;;;;3.80;2.80;;;;;;;;;;5052369;28;20450;-74
2021/10/03 13:06:01;;;;;;;4.30;2.83;;;;;;;;;;5053410;28;20393;-74
2021/10/03 13:08:27;;;;;;;14.60;3.50;;;;;;;;;;5043106;28;20902;-73
2021/10/03 13:10:53;;;;;;;4.90;2.83;;;;;;;;;;5049055;28;20555;-73
2021/10/03 13:13:19;;;;;;;6.10;3.40;;;;;;;;;;5053393;28;20825;-73
2021/10/03 13:15:45;;;;;;;3.10;2.37;;;;;;;;;;5052050;28;20859;-73
2021/10/03 13:18:11;;;;;;;11.27;3.50;;;;;;;;;;5045201;28;20440;-76
2021/10/03 13:21:02;;;;;;;4.77;3.10;;;21.00;1.00;;;;;;5042392;28;20436;-77
2021/10/03 13:23:29;;;;;;;4.23;3.00;;;20.90;1.00;;;;;;5053000;28;20529;-77
2021/10/03 13:25:55;;;;;;;9.57;3.77;;;20.80;1.00;;;;;;5050792;28;20478;-77
2021/10/03 13:28:31;;;;;;;16.33;3.70;;;20.70;1.00;;;;;;5043488;28;20432;-77
2021/10/03 13:30:58;;;;;;;5.50;3.17;;;;;;;;;;5046943;28;20576;-77
2021/10/03 13:33:24;;;;;;;10.90;3.30;;;;;;;;;;5053185;28;20398;-73
2021/10/03 13:35:50;;;;;;;12.57;3.57;;;;;;;;;;5056017;28;20398;-73
2021/10/03 13:38:16;;;;;;;7.60;2.63;;;;;;;;;;5055503;28;20953;-73
2021/10/03 13:40:43;;;;;;;9.27;2.87;;;;;;;;;;5053486;28;21026;-73
2021/10/03 13:43:13;;;;;;;7.60;2.93;;;;;;;;;;5042614;28;20441;-73
2021/10/03 13:45:39;;;;;;;10.83;3.07;;;;;;;;;;5042094;28;20496;-73
2021/10/03 13:48:06;;;;;;;24.60;3.93;;;;;;;;;;5048457;28;20587;-73
2021/10/03 13:50:32;;;;;;;7.83;3.00;;;;;;;;;;5051299;28;20935;-73
2021/10/03 13:53:00;;;;;;;11.63;2.90;;;;;;;;;;5047875;28;20530;-73
2021/10/03 13:55:26;;;;;;;3.93;2.50;;;;;;;;;;5050304;28;20545;-73
2021/10/03 13:57:52;;;;;;;3.27;2.07;;;;;;;;;;5047801;28;20415;-73
2021/10/03 14:00:19;;;;;;;5.70;2.20;;;;;;;;;;5048606;28;20923;-74
2021/10/03 14:02:46;;;;;;;8.93;3.00;;;21.00;1.00;;;;;;5054248;28;20431;-73
2021/10/03 14:05:36;;;;;;;10.03;2.37;;;20.90;1.00;;;;;;5060893;28;20824;-77
2021/10/03 14:08:36;;;;;;;8.00;3.20;;;21.00;1.00;;;;;;5054952;28;20489;-77
2021/10/03 14:11:03;;;;;;;8.53;2.90;;;;;;;;;;5054182;28;20936;-77
2021/10/03 14:13:48;;;;;;;4.93;2.43;;;;;;;;;;5051472;28;20542;-77
2021/10/03 14:16:48;;;;;;;14.20;3.60;;;20.90;1.00;;;;;;5053373;28;20514;-77
2021/10/03 14:19:19;;;;;;;9.17;2.37;;;;;;;;;;5060373;28;20482;-76
2021/10/03 14:21:55;;;;;;;12.03;2.97;;;;;;;;;;5037915;28;20443;-77
2021/10/03 14:24:31;;;;;;;2.53;2.20;;;;;;;;;;5039465;28;20419;-77
2021/10/03 14:27:07;;;;;;;6.17;2.80;;;;;;;;;;5042362;28;20427;-77
2021/10/03 14:29:33;;;;;;;5.50;2.77;;;;;;;;;;5049508;28;20431;-77
2021/10/03 14:32:02;;;;;;;10.73;3.83;;;;;;;;;;5047623;28;21000;-77
2021/10/03 14:34:48;;;;;;;4.57;2.90;;;;;;;;;;5039999;28;20459;-80
2021/10/03 14:37:31;;;;;;;9.40;2.83;;;;;;;;;;5053291;28;20499;-79
2021/10/03 14:40:13;;;;;;;10.50;3.27;;;;;;;;;;5044536;28;20832;-79
2021/10/03 14:42:43;;;;;;;6.43;2.83;;;;;;;;;;5047198;28;20425;-79
2021/10/03 14:45:26;;;;;;;4.83;2.80;;;;;;;;;;5036642;28;20463;-79
2021/10/03 14:51:31;;;;;;;3.27;2.30;;;;;;;;;;5040599;28;20994;-79
2021/10/03 14:54:02;;;;;;;3.47;2.07;;;19.60;1.00;;;;;;5046380;28;20410;-79
2021/10/03 14:57:00;;;;;;;3.43;2.70;;;19.60;1.00;;;;;;5052049;28;20834;-81
2021/10/03 14:59:26;;;;;;;7.40;3.10;;;;;;;;;;5047139;28;20449;-81
2021/10/03 15:01:55;;;;;;;8.33;2.90;;;;;;;;;;5052756;28;20406;-78
2021/10/03 15:04:37;;;;;;;7.80;2.80;;;;;;;;;;5040645;28;20473;-87